Terminal Aerodrome Forecast
Issued by NWS

Home | Current Version | Previous Version | Text Only | Print | Product List | Glossary Off
Versions: 1 2 3 4 5 6 7 8 9 10 11 12 13 14 15 16 17 18 19 20 21 22

000
FTUS43 KABR 230501 AAG
TAFMBG
TAF AMD
KMBG 230501Z 2305/2324 06016G22KT P6SM VCTS OVC100CB
     FM230700 13011KT P6SM OVC250
     FM231700 33011KT P6SM BKN250=

USA.gov is the U.S. government's official web portal to all federal, state and local government web resources and services.